Time;durP1;ratioP1;P1;durP2;ratioP2;P2;SDS_P1;SDS_P2;PMS_P1;PMS_P2;Temp;Humidity;BMP_temperature;BMP_pressure;BME280_temperature;BME280_humidity;BME280_pressure;Samples;Min_cycle;Max_cycle;Signal;HPM_P1;HPM_P2
2023/01/17 00:00:16;;;;;;;;;;;;;;;;;;4973416;28;20446;-83
2023/01/17 00:02:41;;;;;;;;;;;;;;;3.06;100.00;67120.03;4980778;28;19918;-83
2023/01/17 00:10:37;;;;;;;;;;;;;;;3.01;100.00;67106.50;4974103;28;20305;-83
2023/01/17 00:13:02;;;;;;;;;;;;;;;3.01;100.00;67111.19;4968820;28;19918;-84
2023/01/17 00:15:28;;;;;;;;;;;;;;;;;;4953874;28;19972;-84
2023/01/17 00:17:53;;;;;;;;;;;;;;;2.91;100.00;67103.69;4963712;28;19975;-84
2023/01/17 00:26:04;;;;;;;;;;;;;;;2.79;100.00;67089.56;4959578;28;19949;-83
2023/01/17 01:35:06;;;;;;;;;;;;;;;;;;4972017;28;19929;-84
2023/01/17 01:37:31;;;;;;;;;;;;;;;2.28;100.00;67030.63;4971771;28;19918;-86
2023/01/17 01:39:56;;;;;;;;;;;;;;;2.27;100.00;67030.03;4977716;28;19988;-86
2023/01/17 01:42:21;;;;;;;;;;;;;;;2.29;100.00;67032.28;4973842;28;19925;-84
2023/01/17 01:44:51;;;;;;;;;;;;;;;2.27;100.00;67030.03;4971055;28;19945;-83
2023/01/17 01:47:28;;;;;;;;;;;;;;;2.27;100.00;67032.66;4970075;28;19930;-83
2023/01/17 01:49:53;;;;;;;;;;;;;;;2.24;100.00;67027.25;4972452;28;19988;-83
2023/01/17 01:52:21;;;;;;;;;;;;;;;2.25;100.00;67033.59;4972691;28;19919;-84
2023/01/17 01:54:48;;;;;;;;;;;;;;;2.25;100.00;67028.34;4971406;28;19922;-84
2023/01/17 01:57:15;;;;;;;;;;;;;;;2.24;100.00;67026.66;4970964;28;19925;-82
2023/01/17 01:59:44;;;;;;;;;;;;;;;2.22;100.00;67027.03;4970826;28;19925;-85
2023/01/17 02:02:10;;;;;;;;;;;;;;;2.20;100.00;67022.16;4970620;28;19922;-83
2023/01/17 02:04:36;;;;;;;;;;;;;;;2.19;100.00;67021.59;4967328;28;19922;-83
2023/01/17 02:07:09;;;;;;;;;;;;;;;2.18;100.00;67014.66;4965821;28;19972;-83
2023/01/17 02:09:34;;;;;;;;;;;;;;;2.17;100.00;67018.78;4979183;28;19950;-83
2023/01/17 02:11:59;;;;;;;;;;;;;;;;;;4951523;28;19918;-83
2023/01/17 02:14:24;;;;;;;;;;;;;;;2.11;100.00;67012.03;4951331;28;19925;-85
2023/01/17 02:17:09;;;;;;;;;;;;;;;2.05;100.00;67005.81;5016577;28;20013;-83
2023/01/17 02:19:46;;;;;;;;;;;;;;;2.00;100.00;67000.75;5051512;28;19924;-83
2023/01/17 02:22:30;;;;;;;;;;;;;;;1.99;100.00;66999.06;5051950;28;19972;-84
2023/01/17 02:25:09;;;;;;;;;;;;;;;1.94;100.00;66994.00;5067049;28;19924;-83
2023/01/17 02:27:35;;;;;;;;;;;;;;;1.96;100.00;66995.69;5003688;28;19929;-83
2023/01/17 02:30:29;;;;;;;;;;;;;;;1.94;100.00;66993.44;4950855;28;20012;-84
2023/01/17 02:32:54;;;;;;;;;;;;;;;1.92;100.00;66996.97;4953023;28;19918;-84
2023/01/17 02:35:19;;;;;;;;;;;;;;;;;;4953033;28;20348;-85
2023/01/17 02:37:51;;;;;;;;;;;;;;;1.92;100.00;66996.97;4954710;28;20387;-83
2023/01/17 02:40:19;;;;;;;;;;;;;;;1.88;100.00;66987.25;4958336;28;19937;-85
2023/01/17 02:42:49;;;;;;;;;;;;;;;1.86;100.00;66984.97;4949431;28;20012;-84
2023/01/17 02:45:18;;;;;;;;;;;;;;;1.85;100.00;66986.50;4949273;28;20006;-85
2023/01/17 02:47:43;;;;;;;;;;;;;;;1.80;100.00;66978.78;4953369;28;19927;-83
2023/01/17 02:50:19;;;;;;;;;;;;;;;1.74;100.00;66977.28;4970326;28;20009;-83
2023/01/17 02:52:55;;;;;;;;;;;;;;;1.68;100.00;66965.28;4955237;28;20571;-83
2023/01/17 02:55:21;;;;;;;;;;;;;;;;;;4961116;28;19926;-87
2023/01/17 02:58:05;;;;;;;;;;;;;;;1.65;100.00;66961.34;4989102;28;19932;-86
2023/01/17 03:00:37;;;;;;;;;;;;;;;1.66;100.00;66965.09;4955077;28;19929;-86
2023/01/17 03:03:02;;;;;;;;;;;;;;;;;;4960124;28;19989;-83
2023/01/17 03:05:31;;;;;;;;;;;;;;;1.63;100.00;66962.28;4959220;28;19977;-84
2023/01/17 03:07:58;;;;;;;;;;;;;;;1.64;100.00;66960.19;4956990;28;21028;-87
2023/01/17 03:10:24;;;;;;;;;;;;;;;1.62;100.00;66963.78;5029122;28;19928;-86
2023/01/17 03:12:50;;;;;;;;;;;;;;;1.56;100.00;66954.41;4946449;28;19923;-87
2023/01/17 03:15:16;;;;;;;;;;;;;;;1.46;100.00;66940.50;4981137;28;19961;-85
2023/01/17 03:17:41;;;;;;;;;;;;;;;;;;4974021;28;19919;-86
2023/01/17 03:20:07;;;;;;;;;;;;;;;1.17;100.00;66908.44;5011130;28;19934;-83
2023/01/17 03:22:32;;;;;;;;;;;;;;;1.09;100.00;66905.78;4947473;28;19929;-84
2023/01/17 03:24:57;;;;;;;;;;;;;;;1.00;100.00;66890.41;4964095;28;19922;-85
2023/01/17 03:27:22;;;;;;;;;;;;;;;0.97;100.00;66886.47;4971073;28;19968;-85
2023/01/17 03:29:48;;;;;;;;;;;;;;;0.95;100.00;66884.81;4970620;28;19929;-86
2023/01/17 03:32:13;;;;;;;;;;;;;;;0.91;100.00;66882.91;4986328;28;20455;-83
2023/01/17 03:34:38;;;;;;;;;;;;;;;0.91;100.00;66882.91;4967134;28;19918;-85
2023/01/17 03:37:03;;;;;;;;;;;;;;;0.95;100.00;66884.22;4969072;28;19918;-85
2023/01/17 03:39:29;;;;;;;;;;;;;;;0.98;100.00;66890.22;4962269;28;19923;-83
2023/01/17 03:41:54;;;;;;;;;;;;;;;;;;4954205;28;20013;-83
2023/01/17 03:44:19;;;;;;;;;;;;;;;1.01;100.00;66894.16;4969450;28;19978;-84
2023/01/17 03:46:44;;;;;;;;;;;;;;;1.01;100.00;66891.53;4950624;28;19923;-84
2023/01/17 03:49:10;;;;;;;;;;;;;;;1.02;100.00;66892.66;4956018;28;19930;-83
2023/01/17 03:51:35;;;;;;;;;;;;;;;1.02;100.00;66895.28;4950027;28;19927;-86
2023/01/17 03:54:00;;;;;;;;;;;;;;;1.04;100.00;66897.53;4953957;28;21367;-86
2023/01/17 03:56:25;;;;;;;;;;;;;;;1.03;100.00;66893.78;4985028;28;19953;-83
2023/01/17 03:58:50;;;;;;;;;;;;;;;1.08;100.00;66898.84;4990827;28;19922;-82
2023/01/17 04:01:16;;;;;;;;;;;;;;;1.10;100.00;66906.91;4944176;28;19961;-83
2023/01/17 04:03:41;;;;;;;;;;;;;;;;;;4967967;28;20313;-84
2023/01/17 04:06:06;;;;;;;;;;;;;;;1.15;100.00;66906.72;4965977;28;20013;-83
2023/01/17 04:08:31;;;;;;;;;;;;;;;1.17;100.00;66914.22;4968492;28;19926;-84
2023/01/17 04:10:57;;;;;;;;;;;;;;;1.19;100.00;66913.84;4967962;28;19929;-87
2023/01/17 04:13:22;;;;;;;;;;;;;;;1.20;100.00;66911.81;4966845;28;20013;-83
2023/01/17 04:15:49;;;;;;;;;;;;;;;1.24;100.00;66916.31;4962854;28;19922;-83
2023/01/17 04:18:19;;;;;;;;;;;;;;;1.24;100.00;66916.88;4977814;28;20304;-82
2023/01/17 04:20:44;;;;;;;;;;;;;;;1.25;100.00;66912.19;4957941;28;19957;-83
2023/01/17 04:23:10;;;;;;;;;;;;;;;1.25;100.00;66917.44;4991394;28;20501;-84
2023/01/17 04:25:35;;;;;;;;;;;;;;;1.26;100.00;66926.41;4947025;28;19955;-83
2023/01/17 04:28:02;;;;;;;;;;;;;;;1.24;100.00;66918.94;4950099;28;19930;-85
2023/01/17 04:30:27;;;;;;;;;;;;;;;1.25;100.00;66918.00;4951715;28;19953;-85
2023/01/17 04:32:53;;;;;;;;;;;;;;;1.24;100.00;66916.88;4949718;28;19977;-83
2023/01/17 04:35:18;;;;;;;;;;;;;;;1.25;100.00;66917.44;4947882;28;19934;-85
2023/01/17 04:37:44;;;;;;;;;;;;;;;1.23;100.00;66915.72;4957400;28;20449;-83
2023/01/17 04:40:09;;;;;;;;;;;;;;;;;;4955627;28;19922;-84
2023/01/17 04:42:34;;;;;;;;;;;;;;;1.24;100.00;66916.31;5039671;28;19943;-84
2023/01/17 04:44:59;;;;;;;;;;;;;;;1.25;100.00;66918.00;5049201;28;20359;-86
2023/01/17 04:47:24;;;;;;;;;;;;;;;;;;5048412;28;20012;-83
2023/01/17 04:49:50;;;;;;;;;;;;;;;1.19;100.00;66913.84;4956579;28;19954;-84
2023/01/17 04:52:17;;;;;;;;;;;;;;;1.20;100.00;66914.41;4967929;28;19933;-84
2023/01/17 04:54:42;;;;;;;;;;;;;;;1.17;100.00;66911.03;4958122;28;19926;-85
2023/01/17 04:57:08;;;;;;;;;;;;;;;1.17;100.00;66911.59;4956233;28;19978;-83
2023/01/17 04:59:33;;;;;;;;;;;;;;;1.16;100.00;66909.94;4969102;28;19922;-88
2023/01/17 05:01:58;;;;;;;;;;;;;;;;;;4981903;28;20451;-85
2023/01/17 05:04:23;;;;;;;;;;;;;;;1.18;100.00;66909.53;4967808;28;19922;-83
2023/01/17 05:06:49;;;;;;;;;;;;;;;1.21;100.00;66915.53;4971381;28;19926;-83
2023/01/17 05:09:14;;;;;;;;;;;;;;;1.15;100.00;66911.41;4976543;28;19938;-85
2023/01/17 05:11:39;;;;;;;;;;;;;;;1.16;100.00;66912.53;4976474;28;19968;-83
2023/01/17 05:14:04;;;;;;;;;;;;;;;1.13;100.00;66907.66;4986096;28;19920;-84
2023/01/17 05:16:29;;;;;;;;;;;;;;;1.10;100.00;66901.13;4976427;28;19925;-82
2023/01/17 05:18:55;;;;;;;;;;;;;;;1.04;100.00;66894.91;4983805;28;20012;-84
2023/01/17 05:21:20;;;;;;;;;;;;;;;1.04;100.00;66899.59;4970140;28;19964;-83
2023/01/17 05:23:46;;;;;;;;;;;;;;;1.00;100.00;66890.41;4973742;28;19926;-84
2023/01/17 05:26:11;;;;;;;;;;;;;;;0.96;100.00;66888.53;4984134;22;19906;-83
2023/01/17 05:28:36;;;;;;;;;;;;;;;0.93;100.00;66882.53;5062720;28;19932;-83
2023/01/17 05:31:01;;;;;;;;;;;;;;;0.88;100.00;66877.47;5071676;28;19931;-83
2023/01/17 05:33:27;;;;;;;;;;;;;;;0.90;100.00;66879.16;5074966;28;19924;-83
2023/01/17 05:35:52;;;;;;;;;;;;;;;0.90;100.00;66881.78;5070379;28;19925;-83
2023/01/17 05:38:17;;;;;;;;;;;;;;;0.92;100.00;66883.47;5065020;28;19926;-82
2023/01/17 05:40:42;;;;;;;;;;;;;;;;;;5055275;28;19921;-82
2023/01/17 05:43:08;;;;;;;;;;;;;;;0.92;100.00;66886.66;5059692;28;19932;-83
2023/01/17 05:45:33;;;;;;;;;;;;;;;0.96;100.00;66895.84;5053225;28;19991;-83
2023/01/17 05:47:59;;;;;;;;;;;;;;;0.93;100.00;66881.97;5061767;28;20349;-83
2023/01/17 05:50:26;;;;;;;;;;;;;;;0.87;100.00;66876.34;5044255;28;19925;-83
2023/01/17 05:52:55;;;;;;;;;;;;;;;0.88;100.00;66879.53;5052673;28;20406;-83
2023/01/17 05:55:21;;;;;;;;;;;;;;;0.83;100.00;66871.28;5046671;28;19943;-82
2023/01/17 05:57:47;;;;;;;;;;;;;;;0.82;100.00;66873.34;5054537;28;20423;-82
2023/01/17 06:00:12;;;;;;;;;;;;;;;0.85;100.00;66873.53;5050774;28;19975;-83
2023/01/17 06:02:37;;;;;;;;;;;;;;;0.80;100.00;66868.47;5051299;28;19925;-82
2023/01/17 06:05:03;;;;;;;;;;;;;;;0.81;100.00;66874.28;5056665;28;19924;-83
2023/01/17 06:07:28;;;;;;;;;;;;;;;0.80;100.00;66868.47;5050057;28;20337;-82
2023/01/17 06:09:53;;;;;;;;;;;;;;;;;;5052455;28;19936;-83
2023/01/17 06:12:18;;;;;;;;;;;;;;;;;;5054777;28;19917;-82
2023/01/17 06:14:44;;;;;;;;;;;;;;;0.74;100.00;66863.78;5061674;28;19925;-82
2023/01/17 06:17:09;;;;;;;;;;;;;;;0.72;100.00;66859.47;5055608;28;20414;-82
2023/01/17 06:19:34;;;;;;;;;;;;;;;0.66;100.00;66852.72;5061714;28;20383;-82
2023/01/17 06:21:59;;;;;;;;;;;;;;;0.62;100.00;66848.78;5058877;28;19921;-82
2023/01/17 06:24:25;;;;;;;;;;;;;;;0.58;100.00;66846.91;5057421;28;19932;-83
2023/01/17 06:26:50;;;;;;;;;;;;;;;0.53;100.00;66841.28;5057416;28;19978;-82
2023/01/17 06:29:15;;;;;;;;;;;;;;;0.51;100.00;66839.03;5052652;28;20004;-83
2023/01/17 06:31:40;;;;;;;;;;;;;;;;;;5038289;28;19925;-83
2023/01/17 06:34:05;;;;;;;;;;;;;;;0.45;100.00;66829.66;5047792;28;19928;-83
2023/01/17 06:36:33;;;;;;;;;;;;;;;0.43;100.00;66830.59;5055205;28;20529;-83
2023/01/17 06:38:59;;;;;;;;;;;;;;;0.42;100.00;66826.28;5051834;28;19948;-83
2023/01/17 06:41:24;;;;;;;;;;;;;;;0.38;100.00;66824.97;5050754;28;20010;-83
2023/01/17 06:43:53;;;;;;;;;;;;;;;0.37;100.00;66823.28;5049759;28;19924;-83
2023/01/17 06:46:18;;;;;;;;;;;;;;;;;;5050644;28;19921;-83
2023/01/17 06:48:43;;;;;;;;;;;;;;;0.39;100.00;66825.53;5049244;28;19939;-83
2023/01/17 06:51:08;;;;;;;;;;;;;;;0.38;100.00;66821.78;5058750;28;20303;-83
2023/01/17 06:53:33;;;;;;;;;;;;;;;;;;5052333;28;19921;-83
2023/01/17 06:55:59;;;;;;;;;;;;;;;0.36;100.00;66824.78;5046418;28;19925;-83
2023/01/17 06:58:24;;;;;;;;;;;;;;;0.33;100.00;66819.34;5054477;28;19925;-83
2023/01/17 07:00:49;;;;;;;;;;;;;;;0.39;100.00;66825.53;5048852;28;19924;-83
2023/01/17 07:03:19;;;;;;;;;;;;;;;0.34;100.00;66822.53;5044142;28;19928;-83
2023/01/17 07:05:44;;;;;;;;;;;;;;;0.34;100.00;66823.06;5054048;28;20394;-83
2023/01/17 07:08:09;;;;;;;;;;;;;;;0.34;100.00;66822.53;5054245;28;20024;-83
2023/01/17 07:10:34;;;;;;;;;;;;;;;0.33;100.00;66816.72;5054170;28;20315;-83
2023/01/17 07:13:00;;;;;;;;;;;;;;;;;;5054206;28;19999;-83
2023/01/17 07:15:25;;;;;;;;;;;;;;;0.32;100.00;66815.06;5045544;28;20008;-83
2023/01/17 07:17:50;;;;;;;;;;;;;;;;;;5049808;28;19921;-83
2023/01/17 07:20:15;;;;;;;;;;;;;;;0.29;100.00;66812.22;5050259;28;20467;-83
2023/01/17 07:22:43;;;;;;;;;;;;;;;0.28;100.00;66813.16;5060204;28;20380;-83
2023/01/17 07:25:08;;;;;;;;;;;;;;;0.27;100.00;66812.03;5059141;28;20303;-83
2023/01/17 07:27:33;;;;;;;;;;;;;;;0.25;100.00;66809.78;5046709;28;19928;-83
2023/01/17 07:29:59;;;;;;;;;;;;;;;0.20;100.00;66802.69;5054654;28;19971;-83
2023/01/17 07:32:27;;;;;;;;;;;;;;;0.20;100.00;66802.09;5052185;28;19944;-83
2023/01/17 07:34:53;;;;;;;;;;;;;;;0.16;100.00;66803.41;5043917;28;19959;-83
2023/01/17 07:37:18;;;;;;;;;;;;;;;0.19;100.00;66804.16;5051575;28;19967;-83
2023/01/17 07:39:44;;;;;;;;;;;;;;;0.13;100.00;66797.41;5051844;28;19959;-83
2023/01/17 07:42:09;;;;;;;;;;;;;;;;;;5050734;28;19921;-83
2023/01/17 07:44:34;;;;;;;;;;;;;;;0.12;100.00;66796.28;5053606;28;19932;-83
2023/01/17 07:47:00;;;;;;;;;;;;;;;0.08;100.00;66794.41;5055390;28;19929;-83
2023/01/17 07:49:25;;;;;;;;;;;;;;;0.11;100.00;66791.97;5050324;28;19925;-83
2023/01/17 07:51:50;;;;;;;;;;;;;;;0.09;100.00;66792.91;5046196;28;19949;-83
2023/01/17 07:54:15;;;;;;;;;;;;;;;0.06;100.00;66786.34;5045816;28;19933;-83
2023/01/17 07:56:44;;;;;;;;;;;;;;;0.05;100.00;66791.03;5048126;28;20003;-83
2023/01/17 07:59:09;;;;;;;;;;;;;;;0.04;100.00;66787.28;5055526;28;19928;-83
2023/01/17 08:01:35;;;;;;;;;;;;;;;0.02;100.00;66782.44;5048546;28;19920;-83
2023/01/17 08:04:00;;;;;;;;;;;;;;;0.06;100.00;66791.59;5056495;28;19959;-83
2023/01/17 08:06:26;;;;;;;;;;;;;;;0.07;100.00;66787.50;5047075;28;19921;-83
2023/01/17 08:08:53;;;;;;;;;;;;;;;0.06;100.00;66792.16;5048325;28;19927;-83
2023/01/17 08:11:19;;;;;;;;;;;;;;;0.07;100.00;66792.72;5062709;28;19943;-83
2023/01/17 08:13:44;;;;;;;;;;;;;;;0.05;100.00;66787.84;5046851;28;20384;-84
2023/01/17 08:16:10;;;;;;;;;;;;;;;0.07;100.00;66788.06;5052665;28;19925;-83
2023/01/17 08:18:36;;;;;;;;;;;;;;;0.08;100.00;66788.59;5052377;28;19921;-83
2023/01/17 08:21:01;;;;;;;;;;;;;;;0.07;100.00;66788.06;5053192;28;20268;-83
2023/01/17 08:23:26;;;;;;;;;;;;;;;0.12;100.00;66793.13;5053106;28;19956;-83
2023/01/17 08:25:51;;;;;;;;;;;;;;;;;;5045467;28;19962;-83
2023/01/17 08:28:18;;;;;;;;;;;;;;;;;;5051884;28;19929;-83
2023/01/17 08:30:43;;;;;;;;;;;;;;;0.08;100.00;66788.59;5045934;28;19921;-83
2023/01/17 08:33:08;;;;;;;;;;;;;;;;;;5058031;28;20290;-83
2023/01/17 08:35:34;;;;;;;;;;;;;;;0.12;100.00;66793.69;5047028;28;19921;-83
2023/01/17 08:38:03;;;;;;;;;;;;;;;0.14;100.00;66795.91;5054544;28;19964;-83
2023/01/17 08:40:29;;;;;;;;;;;;;;;0.14;100.00;66795.91;5054259;28;19920;-83
2023/01/17 08:42:55;;;;;;;;;;;;;;;0.16;100.00;66797.59;5046734;28;20303;-83
2023/01/17 08:45:21;;;;;;;;;;;;;;;0.14;100.00;66798.53;5051478;28;20403;-83
2023/01/17 08:47:46;;;;;;;;;;;;;;;;;;5047531;28;19959;-83
2023/01/17 08:50:11;;;;;;;;;;;;;;;0.19;100.00;66801.53;5050340;28;20627;-83
2023/01/17 08:52:36;;;;;;;;;;;;;;;0.22;100.00;66806.97;5057059;28;19920;-83
2023/01/17 08:55:02;;;;;;;;;;;;;;;0.28;100.00;66810.53;5051354;28;19948;-83
2023/01/17 08:57:27;;;;;;;;;;;;;;;;;;5043481;28;20165;-83
2023/01/17 08:59:52;;;;;;;;;;;;;;;0.33;100.00;66818.78;5047610;28;19932;-83
2023/01/17 09:02:18;;;;;;;;;;;;;;;0.40;100.00;66824.03;5055894;28;19955;-83
2023/01/17 09:04:44;;;;;;;;;;;;;;;0.39;100.00;66828.16;5043921;28;19925;-83
2023/01/17 09:07:09;;;;;;;;;;;;;;;0.44;100.00;66831.16;5049606;28;19954;-83
2023/01/17 09:09:35;;;;;;;;;;;;;;;0.49;100.00;66833.59;5048382;28;19920;-83
2023/01/17 09:12:00;;;;;;;;;;;;;;;0.49;100.00;66834.16;5050143;28;19924;-83
2023/01/17 09:14:25;;;;;;;;;;;;;;;0.56;100.00;66842.03;5042516;28;19929;-83
2023/01/17 09:16:50;;;;;;;;;;;;;;;0.55;100.00;66840.91;5052548;28;19924;-83
2023/01/17 09:19:16;;;;;;;;;;;;;;;0.59;100.00;66850.66;5057745;28;20007;-83
2023/01/17 09:21:41;;;;;;;;;;;;;;;0.59;100.00;66845.41;5054494;28;20391;-83
2023/01/17 09:24:06;;;;;;;;;;;;;;;0.62;100.00;66848.22;5056724;28;19921;-83
2023/01/17 09:26:32;;;;;;;;;;;;;;;0.65;100.00;66851.59;5068486;28;20337;-83
2023/01/17 09:28:57;;;;;;;;;;;;;;;0.67;100.00;66854.41;5070567;28;19920;-83
2023/01/17 09:31:23;;;;;;;;;;;;;;;0.74;100.00;66861.16;5050507;28;19928;-83
2023/01/17 09:33:49;;;;;;;;;;;;;;;0.77;100.00;66867.16;5053409;28;20486;-83
2023/01/17 09:36:14;;;;;;;;;;;;;;;0.80;100.00;66867.91;5060729;28;19987;-83
2023/01/17 09:38:40;;;;;;;;;;;;;;;0.82;100.00;66873.34;5044320;28;19921;-83
2023/01/17 09:41:26;;;;;;;;;;;;;;;0.86;100.00;66879.91;5055619;28;20560;-83
2023/01/17 09:43:54;;;;;;;;;;;;;;;0.87;100.00;66875.78;5058766;28;20019;-83
2023/01/17 09:46:22;;;;;;;;;;;;;;;0.86;100.00;66874.66;5047913;28;20011;-83
2023/01/17 09:48:55;;;;;;;;;;;;;;;0.91;100.00;66880.28;5050150;28;19929;-83
2023/01/17 09:51:22;;;;;;;;;;;;;;;0.91;100.00;66880.28;5050699;28;19921;-83
2023/01/17 09:53:48;;;;;;;;;;;;;;;0.95;100.00;66890.03;5051501;28;19978;-83
2023/01/17 09:56:17;;;;;;;;;;;;;;;0.92;100.00;66881.41;5049555;28;19921;-83
2023/01/17 09:58:51;;;;;;;;;;;;;;;0.85;100.00;66873.53;5050665;28;19964;-83
2023/01/17 10:01:16;;;;;;;;;;;;;;;0.88;100.00;66877.47;5054587;28;19928;-83
2023/01/17 10:03:42;;;;;;;;;;;;;;;0.88;100.00;66876.91;5052020;28;19931;-83
2023/01/17 10:06:07;;;;;;;;;;;;;;;;;;5061465;28;19956;-83
2023/01/17 10:08:50;;;;;;;;;;;;;;;0.88;100.00;66877.47;5049401;28;19929;-83
2023/01/17 10:11:16;;;;;;;;;;;;;;;;;;5026729;28;19920;-82
2023/01/17 10:13:52;;;;;;;;;;;;;;;1.01;100.00;66894.16;5047268;28;20016;-83
2023/01/17 10:16:30;;;;;;;;;;;;;;;1.08;100.00;66902.03;5042847;28;19975;-83
2023/01/17 10:18:58;;;;;;;;;;;;;;;1.19;100.00;66910.69;5053228;28;20008;-83
2023/01/17 10:21:31;;;;;;;;;;;;;;;1.29;100.00;66922.47;5036078;28;19928;-83
2023/01/17 10:23:59;;;;;;;;;;;;;;;1.28;100.00;66926.06;5043249;28;20067;-83
2023/01/17 10:26:25;;;;;;;;;;;;;;;1.32;100.00;66927.91;5052322;28;20342;-82
2023/01/17 10:28:52;;;;;;;;;;;;;;;1.49;100.00;66946.50;5041768;28;19917;-83
2023/01/17 10:31:24;;;;;;;;;;;;;;;1.56;100.00;66952.34;5043150;28;19921;-83
2023/01/17 10:33:51;;;;;;;;;;;;;;;1.63;100.00;66959.09;5055245;28;19916;-83
2023/01/17 10:36:21;;;;;;;;;;;;;;;1.71;100.00;66971.28;5043567;28;19956;-83
2023/01/17 10:38:46;;;;;;;;;;;;;;;;;;5045198;28;20718;-83
2023/01/17 10:41:20;;;;;;;;;;;;;;;1.76;100.00;66973.72;5045076;28;19929;-83
2023/01/17 10:44:00;;;;;;;;;;;;;;;1.86;100.00;66979.72;5050911;28;19974;-83
2023/01/17 10:46:27;;;;;;;;;;;;;;;;;;5043952;28;19929;-83
2023/01/17 10:48:53;;;;;;;;;;;;;;;1.94;100.00;66988.19;5058903;28;20452;-83
2023/01/17 10:51:43;;;;;;;;;;;;;;;1.94;100.00;66996.63;5057590;28;19920;-83
2023/01/17 10:54:37;;;;;;;;;;;;;;;2.01;100.00;67001.91;5056856;28;20380;-83
2023/01/17 10:57:02;;;;;;;;;;;;;;;1.98;100.00;66998.50;5017060;28;19931;-83
2023/01/17 10:59:30;;;;;;;;;;;;;;;2.06;100.00;67006.38;5051327;28;20007;-83
2023/01/17 11:01:55;;;;;;;;;;;;;;;2.01;100.00;67004.50;5052819;28;19921;-83
2023/01/17 11:04:29;;;;;;;;;;;;;;;1.98;100.00;66998.50;5047062;28;20008;-83
2023/01/17 11:06:54;;;;;;;;;;;;;;;;;;5051866;28;20350;-83
2023/01/17 11:09:35;;;;;;;;;;;;;;;1.93;100.00;66992.31;5051918;28;20498;-83
2023/01/17 11:12:00;;;;;;;;;;;;;;;1.98;100.00;67000.56;5041741;28;19990;-83
2023/01/17 11:14:25;;;;;;;;;;;;;;;2.14;100.00;67010.16;5057011;28;20396;-83
2023/01/17 11:16:58;;;;;;;;;;;;;;;2.15;100.00;67016.53;5053179;28;19920;-83
2023/01/17 11:19:31;;;;;;;;;;;;;;;2.32;100.00;67035.13;5052844;28;19924;-83
2023/01/17 11:21:57;;;;;;;;;;;;;;;;;;5049233;28;19975;-83
2023/01/17 11:24:49;;;;;;;;;;;;;;;2.41;100.00;67051.06;5056427;28;19964;-83
2023/01/17 11:27:25;;;;;;;;;;;;;;;2.30;100.00;67036.03;5039771;28;19921;-83
2023/01/17 11:30:04;;;;;;;;;;;;;;;2.30;100.00;67032.84;5044231;28;19990;-83
2023/01/17 11:32:31;;;;;;;;;;;;;;;2.29;100.00;67034.91;5042882;28;19916;-83
2023/01/17 11:35:12;;;;;;;;;;;;;;;2.34;100.00;67032.69;5049385;28;20656;-83
2023/01/17 11:37:37;;;;;;;;;;;;;;;2.36;100.00;67040.19;5047908;28;20470;-83
2023/01/17 11:40:17;;;;;;;;;;;;;;;2.43;100.00;67047.50;5046605;28;19924;-83
2023/01/17 11:42:43;;;;;;;;;;;;;;;2.35;100.00;67039.06;5052413;28;19924;-83
2023/01/17 11:45:08;;;;;;;;;;;;;;;;;;5050060;28;19924;-83
2023/01/17 11:47:33;;;;;;;;;;;;;;;2.55;100.00;67060.47;5045565;28;20470;-83
2023/01/17 11:49:58;;;;;;;;;;;;;;;2.66;100.00;67072.88;5049630;28;19936;-83
2023/01/17 11:52:25;;;;;;;;;;;;;;;2.62;100.00;67068.38;5048836;28;20284;-83
2023/01/17 11:54:50;;;;;;;;;;;;;;;;;;5044263;28;19925;-83
2023/01/17 11:57:18;;;;;;;;;;;;;;;2.67;100.00;67074.00;5052188;28;19924;-83
2023/01/17 11:59:44;;;;;;;;;;;;;;;2.72;100.00;67080.19;5053091;28;19916;-83
2023/01/17 12:02:19;;;;;;;;;;;;;;;2.75;100.00;67083.00;5057563;28;19927;-83
2023/01/17 12:04:45;;;;;;;;;;;;;;;2.83;100.00;67092.03;5045237;28;19924;-83
2023/01/17 12:07:11;;;;;;;;;;;;;;;2.99;100.00;67109.50;5047106;28;20016;-83
2023/01/17 12:09:55;;;;;;;;;;;;;;;3.14;100.00;67126.41;5047482;28;20447;-83
2023/01/17 12:15:15;;;;;;;;;;;;;;;;;;5048749;28;19978;-83
2023/01/17 12:17:53;;;;;;;;;;;;;;;3.08;100.00;67119.06;5050744;28;20391;-83
2023/01/17 12:20:18;;;;;;;;;;;;;;;;;;5047390;28;19929;-83
2023/01/17 12:22:49;;;;;;;;;;;;;;;3.38;100.00;67152.34;5046965;28;19974;-83
2023/01/17 12:25:14;;;;;;;;;;;;;;;;;;5047850;28;20355;-83
2023/01/17 12:27:58;;;;;;;;;;;;;;;3.58;100.00;67169.66;5047710;28;20297;-83
2023/01/17 12:30:32;;;;;;;;;;;;;;;3.47;100.00;67162.50;5027559;28;19924;-83
2023/01/17 12:33:21;;;;;;;;;;;;;;;3.35;100.00;67148.97;5060610;28;19927;-83
2023/01/17 12:35:57;;;;;;;;;;;;;;;3.28;100.00;67136.38;5049206;28;19990;-83
2023/01/17 12:38:22;;;;;;;;;;;;;;;;;;5068611;28;19928;-83
2023/01/17 12:41:01;;;;;;;;;;;;;;;3.50;100.00;67165.31;5067989;28;20299;-83
2023/01/17 12:43:27;;;;;;;;;;;;;;;;;;5062179;28;20054;-83
2023/01/17 12:45:53;;;;;;;;;;;;;;;;;;5062750;28;20010;-83
2023/01/17 12:48:18;;;;;;;;;;;;;;;;;;5065872;28;20008;-83
2023/01/17 12:50:49;;;;;;;;;;;;;;;3.36;100.00;67150.09;5062629;28;20466;-83
2023/01/17 12:53:17;;;;;;;;;;;;;;;3.38;100.00;67152.34;5063942;28;19923;-83
2023/01/17 12:56:01;;;;;;;;;;;;;;;3.27;100.00;67139.94;5055530;28;19920;-83
2023/01/17 12:58:29;;;;;;;;;;;;;;;3.21;100.00;67133.75;5064977;28;20307;-83
2023/01/17 13:00:54;;;;;;;;;;;;;;;;;;5069695;28;19923;-83
2023/01/17 13:03:26;;;;;;;;;;;;;;;3.15;100.00;67126.97;5063557;28;19920;-83
2023/01/17 13:05:51;;;;;;;;;;;;;;;3.17;100.00;67132.44;5067251;28;19916;-83
2023/01/17 13:08:27;;;;;;;;;;;;;;;3.11;100.00;67123.03;5070175;28;20472;-83
2023/01/17 13:10:53;;;;;;;;;;;;;;;;;;5080264;28;19920;-83
2023/01/17 13:13:24;;;;;;;;;;;;;;;3.25;100.00;67132.44;5059193;28;19921;-83
2023/01/17 13:15:59;;;;;;;;;;;;;;;3.26;100.00;67139.38;5058918;28;19939;-83
2023/01/17 13:18:24;;;;;;;;;;;;;;;;;;5062422;28;19927;-83
2023/01/17 13:20:51;;;;;;;;;;;;;;;;;;5065664;28;19921;-83
2023/01/17 13:23:25;;;;;;;;;;;;;;;3.47;100.00;67162.50;5066349;28;19920;-83
2023/01/17 13:25:51;;;;;;;;;;;;;;;3.60;100.00;67177.16;5063778;28;19931;-83
2023/01/17 13:28:16;;;;;;;;;;;;;;;;;;5058346;28;19921;-82
2023/01/17 13:31:00;;;;;;;;;;;;;;;3.63;100.00;67179.44;5060435;28;19928;-83
2023/01/17 13:33:46;;;;;;;;;;;;;;;3.74;100.00;67192.41;5070787;28;19924;-83
2023/01/17 13:36:17;;;;;;;;;;;;;;;3.78;100.00;67196.91;5044735;28;19969;-82
2023/01/17 13:38:42;;;;;;;;;;;;;;;;;;5067777;28;20288;-82
2023/01/17 13:41:30;;;;;;;;;;;;;;;3.74;100.00;67186.56;5074607;28;19943;-84
2023/01/17 13:46:51;;;;;;;;;;;;;;;3.78;100.00;67196.91;5076686;28;20384;-83
2023/01/17 13:49:16;;;;;;;;;;;;;;;;;;5076205;28;19977;-84
2023/01/17 13:52:02;;;;;;;;;;;;;;;3.97;100.00;67217.22;5075688;28;19999;-83
2023/01/17 13:54:27;;;;;;;;;;;;;;;;;;5055609;28;19932;-83
2023/01/17 13:57:12;;;;;;;;;;;;;;;3.86;100.00;67204.81;5078667;28;19928;-84
2023/01/17 13:59:37;;;;;;;;;;;;;;;3.89;100.00;67208.19;5079718;28;19928;-83
2023/01/17 14:02:23;;;;;;;;;;;;;;;3.85;100.00;67204.22;5084991;28;20647;-84
2023/01/17 14:05:06;;;;;;;;;;;;;;;4.05;100.00;67226.81;5063598;28;20362;-83
2023/01/17 14:07:33;;;;;;;;;;;;;;;4.07;100.00;67228.50;5070289;28;19920;-84
2023/01/17 14:09:58;;;;;;;;;;;;;;;4.06;100.00;67230.56;5064573;28;19926;-84
2023/01/17 14:12:24;;;;;;;;;;;;;;;;;;5076480;28;19982;-85
2023/01/17 14:14:50;;;;;;;;;;;;;;;3.99;100.00;67214.75;5075235;28;19993;-85
2023/01/17 14:17:19;;;;;;;;;;;;;;;4.04;100.00;67225.13;5050765;28;19921;-85
2023/01/17 14:19:44;;;;;;;;;;;;;;;;;;5072308;28;19952;-85
2023/01/17 14:22:09;;;;;;;;;;;;;;;;;;5067865;28;19916;-87
2023/01/17 14:24:53;;;;;;;;;;;;;;;3.93;100.00;67212.72;5077559;28;19920;-86
2023/01/17 14:27:22;;;;;;;;;;;;;;;3.94;100.00;67213.81;5070782;28;19979;-85
2023/01/17 14:29:51;;;;;;;;;;;;;;;3.77;100.00;67195.78;5073674;28;20490;-86
2023/01/17 14:32:20;;;;;;;;;;;;;;;3.63;100.00;67179.44;5080381;28;19927;-85
2023/01/17 14:34:46;;;;;;;;;;;;;;;;;;5080359;28;20016;-85
2023/01/17 14:37:28;;;;;;;;;;;;;;;3.47;100.00;67161.94;5081852;28;19917;-86
2023/01/17 14:39:53;;;;;;;;;;;;;;;3.53;100.00;67163.44;5080099;28;20336;-85
2023/01/17 14:42:21;;;;;;;;;;;;;;;3.44;100.00;67158.56;5070571;28;19927;-86
2023/01/17 14:44:46;;;;;;;;;;;;;;;;;;5078208;28;20487;-85
2023/01/17 14:47:12;;;;;;;;;;;;;;;3.46;100.00;67160.81;5058239;28;20450;-86